Terminal Aerodrome Forecast
Issued by NWS Quad Cities IA IL

Home | Current Version | Previous Version | Text Only | Print | Product List | Glossary Off
Versions: 1 2 3 4 5 6 7 8 9 10 11 12 13 14 15 16 17 18 19

000
FTUS43 KDVN 281100
TAFMLI
TAF
KMLI 281123Z 2812/0112 00000KT P6SM SKC
     FM281900 14008KT P6SM BKN200
     FM010000 13006KT P6SM OVC040 PROB30 0102/0106 4SM -SN BR
      OVC025=

USA.gov is the U.S. government's official web portal to all federal, state and local government web resources and services.